sensor_id;sensor_type;location;lat;lon;timestamp;pressure;altitude;pressure_sealevel;temperature;humidity
70952;BME280;69214;55.880;37.542;2023-07-16T00:00:12;98605.06;;;14.08;82.80
70952;BME280;69214;55.880;37.542;2023-07-16T00:02:38;98578.44;;;13.99;82.27
70952;BME280;69214;55.880;37.542;2023-07-16T00:05:04;98604.78;;;14.15;82.93
70952;BME280;69214;55.880;37.542;2023-07-16T00:07:32;98609.44;;;14.19;81.83
70952;BME280;69214;55.880;37.542;2023-07-16T00:09:58;98608.06;;;14.17;82.40
70952;BME280;69214;55.880;37.542;2023-07-16T00:12:24;98611.91;;;14.16;81.68
70952;BME280;69214;55.880;37.542;2023-07-16T00:14:49;98614.66;;;14.16;82.09
70952;BME280;69214;55.880;37.542;2023-07-16T00:17:17;98608.34;;;14.10;82.15
70952;BME280;69214;55.880;37.542;2023-07-16T00:19:43;98617.38;;;14.16;81.98
70952;BME280;69214;55.880;37.542;2023-07-16T00:22:09;98614.91;;;14.14;81.98
70952;BME280;69214;55.880;37.542;2023-07-16T00:24:34;98611.09;;;14.10;81.85
70952;BME280;69214;55.880;37.542;2023-07-16T00:27:00;98600.66;;;14.07;82.04
70952;BME280;69214;55.880;37.542;2023-07-16T00:29:26;98610.00;;;14.11;82.49
70952;BME280;69214;55.880;37.542;2023-07-16T00:31:52;98608.06;;;14.12;82.44
70952;BME280;69214;55.880;37.542;2023-07-16T00:34:18;98601.22;;;14.04;82.58
70952;BME280;69214;55.880;37.542;2023-07-16T00:36:44;98607.78;;;14.13;82.55
70952;BME280;69214;55.880;37.542;2023-07-16T00:39:10;98611.09;;;14.15;81.93
70952;BME280;69214;55.880;37.542;2023-07-16T00:41:35;98611.09;;;14.15;81.80
70952;BME280;69214;55.880;37.542;2023-07-16T00:44:01;98617.66;;;14.19;82.22
70952;BME280;69214;55.880;37.542;2023-07-16T00:46:28;98613.53;;;14.22;81.80
70952;BME280;69214;55.880;37.542;2023-07-16T00:48:54;98618.75;;;14.23;81.98
70952;BME280;69214;55.880;37.542;2023-07-16T00:51:24;98620.41;;;14.24;81.61
70952;BME280;69214;55.880;37.542;2023-07-16T00:53:51;98616.00;;;14.29;82.14
70952;BME280;69214;55.880;37.542;2023-07-16T00:56:17;98617.09;;;14.33;81.64
70952;BME280;69214;55.880;37.542;2023-07-16T00:58:44;98605.28;;;14.32;81.49
70952;BME280;69214;55.880;37.542;2023-07-16T01:01:11;98612.69;;;14.37;82.11
70952;BME280;69214;55.880;37.542;2023-07-16T01:03:37;98617.34;;;14.41;82.04
70952;BME280;69214;55.880;37.542;2023-07-16T01:06:25;98630.84;;;14.43;81.35
70952;BME280;69214;55.880;37.542;2023-07-16T01:09:00;98623.41;;;14.43;81.36
70952;BME280;69214;55.880;37.542;2023-07-16T01:11:28;98623.94;;;14.40;81.21
70952;BME280;69214;55.880;37.542;2023-07-16T01:13:56;98626.97;;;14.34;81.13
70952;BME280;69214;55.880;37.542;2023-07-16T01:16:24;98619.84;;;14.22;81.18
70952;BME280;69214;55.880;37.542;2023-07-16T01:18:51;98621.50;;;14.18;81.17
70952;BME280;69214;55.880;37.542;2023-07-16T01:21:20;98628.91;;;14.08;81.73
70952;BME280;69214;55.880;37.542;2023-07-16T01:27:04;98634.97;;;14.00;80.74
70952;BME280;69214;55.880;37.542;2023-07-16T01:29:58;98624.25;;;13.88;81.04
70952;BME280;69214;55.880;37.542;2023-07-16T01:32:28;98642.09;;;13.90;82.53
70952;BME280;69214;55.880;37.542;2023-07-16T01:34:55;98650.03;;;13.92;82.45
70952;BME280;69214;55.880;37.542;2023-07-16T01:37:22;98651.97;;;13.91;82.59
70952;BME280;69214;55.880;37.542;2023-07-16T01:39:49;98636.88;;;13.84;82.83
70952;BME280;69214;55.880;37.542;2023-07-16T01:42:15;98648.13;;;13.92;82.66
70952;BME280;69214;55.880;37.542;2023-07-16T01:44:40;98644.56;;;13.92;82.57
70952;BME280;69214;55.880;37.542;2023-07-16T01:47:13;98657.19;;;14.03;82.43
70952;BME280;69214;55.880;37.542;2023-07-16T01:49:39;98648.13;;;14.08;82.51
70952;BME280;69214;55.880;37.542;2023-07-16T01:52:07;98640.72;;;14.13;82.96
70952;BME280;69214;55.880;37.542;2023-07-16T01:54:33;98652.22;;;14.25;82.43
70952;BME280;69214;55.880;37.542;2023-07-16T01:56:59;98649.75;;;14.34;82.15
70952;BME280;69214;55.880;37.542;2023-07-16T01:59:25;98643.16;;;14.40;81.99
70952;BME280;69214;55.880;37.542;2023-07-16T02:01:54;98642.63;;;14.43;81.51
70952;BME280;69214;55.880;37.542;2023-07-16T02:04:20;98643.47;;;14.44;81.65
70952;BME280;69214;55.880;37.542;2023-07-16T02:06:46;98650.56;;;14.55;81.26
70952;BME280;69214;55.880;37.542;2023-07-16T02:09:17;98652.78;;;14.58;81.28
70952;BME280;69214;55.880;37.542;2023-07-16T02:11:43;98653.84;;;14.67;80.85
70952;BME280;69214;55.880;37.542;2023-07-16T02:14:09;98636.84;;;14.60;80.94
70952;BME280;69214;55.880;37.542;2023-07-16T02:16:36;98662.34;;;14.76;80.82
70952;BME280;69214;55.880;37.542;2023-07-16T02:19:02;98649.72;;;14.75;80.51
70952;BME280;69214;55.880;37.542;2023-07-16T02:21:28;98669.47;;;14.82;81.42
70952;BME280;69214;55.880;37.542;2023-07-16T02:23:54;98666.16;;;14.85;81.14
70952;BME280;69214;55.880;37.542;2023-07-16T02:26:19;98663.66;;;14.99;80.97
70952;BME280;69214;55.880;37.542;2023-07-16T02:28:45;98661.97;;;15.08;80.12
70952;BME280;69214;55.880;37.542;2023-07-16T02:31:11;98665.22;;;15.15;80.33
70952;BME280;69214;55.880;37.542;2023-07-16T02:33:40;98669.06;;;15.19;80.32
70952;BME280;69214;55.880;37.542;2023-07-16T02:36:07;98648.22;;;15.08;79.95
70952;BME280;69214;55.880;37.542;2023-07-16T02:38:33;98669.31;;;15.28;79.41
70952;BME280;69214;55.880;37.542;2023-07-16T02:40:59;98658.31;;;15.28;79.73
70952;BME280;69214;55.880;37.542;2023-07-16T02:43:25;98626.44;;;15.21;79.42
70952;BME280;69214;55.880;37.542;2023-07-16T02:45:51;98670.31;;;15.47;79.73
70952;BME280;69214;55.880;37.542;2023-07-16T02:48:17;98657.91;;;15.49;79.42
70952;BME280;69214;55.880;37.542;2023-07-16T02:50:43;98665.25;;;15.64;78.65
70952;BME280;69214;55.880;37.542;2023-07-16T02:53:09;98669.09;;;15.68;78.94
70952;BME280;69214;55.880;37.542;2023-07-16T02:55:35;98673.19;;;15.71;78.31
70952;BME280;69214;55.880;37.542;2023-07-16T02:58:01;98673.69;;;15.78;78.39
70952;BME280;69214;55.880;37.542;2023-07-16T03:00:30;98681.66;;;15.79;78.12
70952;BME280;69214;55.880;37.542;2023-07-16T03:02:57;98679.75;;;15.80;78.14
70952;BME280;69214;55.880;37.542;2023-07-16T03:05:25;98676.13;;;15.84;78.42
70952;BME280;69214;55.880;37.542;2023-07-16T03:07:51;98683.53;;;15.89;77.90
70952;BME280;69214;55.880;37.542;2023-07-16T03:10:17;98681.00;;;15.98;78.07
70952;BME280;69214;55.880;37.542;2023-07-16T03:12:43;98659.31;;;15.91;77.61
70952;BME280;69214;55.880;37.542;2023-07-16T03:15:09;98677.25;;;16.17;77.22
70952;BME280;69214;55.880;37.542;2023-07-16T03:17:36;98688.09;;;16.38;76.66
70952;BME280;69214;55.880;37.542;2023-07-16T03:20:02;98686.03;;;16.53;76.22
70952;BME280;69214;55.880;37.542;2023-07-16T03:22:31;98677.06;;;16.72;76.11
70952;BME280;69214;55.880;37.542;2023-07-16T03:24:57;98683.59;;;17.05;75.25
70952;BME280;69214;55.880;37.542;2023-07-16T03:27:23;98684.34;;;17.34;74.61
70952;BME280;69214;55.880;37.542;2023-07-16T03:29:54;98689.53;;;17.60;73.47
70952;BME280;69214;55.880;37.542;2023-07-16T03:32:21;98661.06;;;17.64;73.10
70952;BME280;69214;55.880;37.542;2023-07-16T03:34:47;98689.00;;;17.82;72.65
70952;BME280;69214;55.880;37.542;2023-07-16T03:37:12;98693.69;;;17.81;72.52
70952;BME280;69214;55.880;37.542;2023-07-16T03:39:38;98693.09;;;17.84;72.46
70952;BME280;69214;55.880;37.542;2023-07-16T03:42:04;98694.50;;;17.82;72.46
70952;BME280;69214;55.880;37.542;2023-07-16T03:44:31;98694.81;;;17.80;72.73
70952;BME280;69214;55.880;37.542;2023-07-16T03:46:58;98692.88;;;17.80;72.35
70952;BME280;69214;55.880;37.542;2023-07-16T03:49:24;98702.94;;;17.90;72.00
70952;BME280;69214;55.880;37.542;2023-07-16T03:51:49;98708.69;;;17.94;72.22
70952;BME280;69214;55.880;37.542;2023-07-16T03:54:15;98711.69;;;17.97;72.24
70952;BME280;69214;55.880;37.542;2023-07-16T03:56:42;98707.56;;;17.95;72.14
70952;BME280;69214;55.880;37.542;2023-07-16T03:59:08;98686.00;;;17.78;72.15
70952;BME280;69214;55.880;37.542;2023-07-16T04:01:34;98706.38;;;17.82;72.09
70952;BME280;69214;55.880;37.542;2023-07-16T04:03:59;98717.25;;;17.73;72.85
70952;BME280;69214;55.880;37.542;2023-07-16T04:06:26;98719.78;;;17.70;72.93
70952;BME280;69214;55.880;37.542;2023-07-16T04:08:52;98715.44;;;17.64;73.01
70952;BME280;69214;55.880;37.542;2023-07-16T04:11:18;98722.50;;;17.51;73.41
70952;BME280;69214;55.880;37.542;2023-07-16T04:13:44;98719.28;;;17.44;73.67
70952;BME280;69214;55.880;37.542;2023-07-16T04:16:10;98727.38;;;17.35;74.09
70952;BME280;69214;55.880;37.542;2023-07-16T04:18:35;98727.31;;;17.40;74.11
70952;BME280;69214;55.880;37.542;2023-07-16T04:21:01;98724.72;;;17.49;73.78
70952;BME280;69214;55.880;37.542;2023-07-16T04:23:27;98724.94;;;17.53;73.44
70952;BME280;69214;55.880;37.542;2023-07-16T04:25:54;98729.66;;;17.52;73.47
70952;BME280;69214;55.880;37.542;2023-07-16T04:28:20;98721.13;;;17.48;73.23
70952;BME280;69214;55.880;37.542;2023-07-16T04:30:46;98722.56;;;17.46;73.73
70952;BME280;69214;55.880;37.542;2023-07-16T04:33:12;98728.81;;;17.52;73.63
70952;BME280;69214;55.880;37.542;2023-07-16T04:35:38;98727.06;;;17.61;73.34
70952;BME280;69214;55.880;37.542;2023-07-16T04:38:03;98725.91;;;17.67;73.02
70952;BME280;69214;55.880;37.542;2023-07-16T04:40:29;98734.94;;;17.72;73.16
70952;BME280;69214;55.880;37.542;2023-07-16T04:42:56;98707.75;;;17.61;72.75
70952;BME280;69214;55.880;37.542;2023-07-16T04:45:22;98733.16;;;17.82;73.11
70952;BME280;69214;55.880;37.542;2023-07-16T04:47:48;98735.63;;;18.02;72.51
70952;BME280;69214;55.880;37.542;2023-07-16T04:50:13;98733.97;;;18.20;72.18
70952;BME280;69214;55.880;37.542;2023-07-16T04:52:39;98724.94;;;18.33;71.39
70952;BME280;69214;55.880;37.542;2023-07-16T04:55:05;98725.91;;;18.42;71.13
70952;BME280;69214;55.880;37.542;2023-07-16T04:57:32;98713.41;;;18.44;71.39
70952;BME280;69214;55.880;37.542;2023-07-16T04:59:58;98723.78;;;18.53;70.71
70952;BME280;69214;55.880;37.542;2023-07-16T05:02:24;98717.13;;;18.54;70.78
70952;BME280;69214;55.880;37.542;2023-07-16T05:04:50;98726.41;;;18.63;70.85
70952;BME280;69214;55.880;37.542;2023-07-16T05:07:16;98722.06;;;18.57;70.83
70952;BME280;69214;55.880;37.542;2023-07-16T05:09:42;98734.53;;;18.73;70.32
70952;BME280;69214;55.880;37.542;2023-07-16T05:12:09;98725.31;;;18.77;70.25
70952;BME280;69214;55.880;37.542;2023-07-16T05:14:46;98728.50;;;18.85;70.84
70952;BME280;69214;55.880;37.542;2023-07-16T05:17:13;98724.94;;;18.98;69.85
70952;BME280;69214;55.880;37.542;2023-07-16T05:19:39;98727.34;;;19.18;69.25
70952;BME280;69214;55.880;37.542;2023-07-16T05:22:06;98726.22;;;19.47;68.70
70952;BME280;69214;55.880;37.542;2023-07-16T05:24:32;98719.88;;;19.73;67.67
70952;BME280;69214;55.880;37.542;2023-07-16T05:26:58;98737.75;;;20.03;66.97
70952;BME280;69214;55.880;37.542;2023-07-16T05:29:24;98741.50;;;20.21;66.53
70952;BME280;69214;55.880;37.542;2023-07-16T05:31:50;98740.63;;;20.34;65.97
70952;BME280;69214;55.880;37.542;2023-07-16T05:34:16;98735.94;;;20.57;65.79
70952;BME280;69214;55.880;37.542;2023-07-16T05:36:42;98735.25;;;21.05;64.92
70952;BME280;69214;55.880;37.542;2023-07-16T05:39:10;98737.50;;;21.74;63.10
70952;BME280;69214;55.880;37.542;2023-07-16T05:41:39;98739.72;;;22.28;61.72
70952;BME280;69214;55.880;37.542;2023-07-16T05:44:05;98737.59;;;22.51;60.54
70952;BME280;69214;55.880;37.542;2023-07-16T05:46:33;98736.94;;;22.46;61.25
70952;BME280;69214;55.880;37.542;2023-07-16T05:48:59;98742.34;;;22.42;60.38
70952;BME280;69214;55.880;37.542;2023-07-16T05:51:25;98739.72;;;22.46;60.62
70952;BME280;69214;55.880;37.542;2023-07-16T05:53:50;98736.59;;;22.65;59.89
70952;BME280;69214;55.880;37.542;2023-07-16T05:56:16;98750.19;;;22.92;59.41
70952;BME280;69214;55.880;37.542;2023-07-16T05:58:42;98743.50;;;23.31;58.78
70952;BME280;69214;55.880;37.542;2023-07-16T06:01:08;98746.50;;;23.94;57.58
70952;BME280;69214;55.880;37.542;2023-07-16T06:03:34;98743.50;;;24.49;55.78
70952;BME280;69214;55.880;37.542;2023-07-16T06:06:00;98749.53;;;24.72;55.13
70952;BME280;69214;55.880;37.542;2023-07-16T06:08:26;98747.44;;;24.69;54.83
70952;BME280;69214;55.880;37.542;2023-07-16T06:10:52;98748.19;;;24.57;55.00
70952;BME280;69214;55.880;37.542;2023-07-16T06:13:18;98751.94;;;24.40;55.83
70952;BME280;69214;55.880;37.542;2023-07-16T06:15:44;98754.59;;;24.37;55.51
70952;BME280;69214;55.880;37.542;2023-07-16T06:18:10;98737.53;;;24.38;55.64
70952;BME280;69214;55.880;37.542;2023-07-16T06:20:35;98748.16;;;24.78;55.01
70952;BME280;69214;55.880;37.542;2023-07-16T06:23:01;98746.03;;;24.96;54.24
70952;BME280;69214;55.880;37.542;2023-07-16T06:25:27;98753.44;;;25.12;53.67
70952;BME280;69214;55.880;37.542;2023-07-16T06:27:53;98746.03;;;25.41;53.30
70952;BME280;69214;55.880;37.542;2023-07-16T06:30:19;98747.41;;;26.08;51.68
70952;BME280;69214;55.880;37.542;2023-07-16T06:32:45;98736.78;;;26.26;50.84
70952;BME280;69214;55.880;37.542;2023-07-16T06:35:10;98754.75;;;26.12;51.39
70952;BME280;69214;55.880;37.542;2023-07-16T06:37:36;98754.47;;;25.90;51.89
70952;BME280;69214;55.880;37.542;2023-07-16T06:40:02;98759.25;;;25.65;51.99
70952;BME280;69214;55.880;37.542;2023-07-16T06:42:30;98761.38;;;25.35;52.61
70952;BME280;69214;55.880;37.542;2023-07-16T06:44:58;98760.66;;;24.93;53.73
70952;BME280;69214;55.880;37.542;2023-07-16T06:47:24;98776.84;;;24.45;54.65
70952;BME280;69214;55.880;37.542;2023-07-16T06:49:50;98768.31;;;23.92;55.70
70952;BME280;69214;55.880;37.542;2023-07-16T06:52:23;98770.47;;;23.56;59.42
70952;BME280;69214;55.880;37.542;2023-07-16T06:54:53;98772.03;;;23.28;57.96
70952;BME280;69214;55.880;37.542;2023-07-16T06:57:21;98769.00;;;22.95;58.49
70952;BME280;69214;55.880;37.542;2023-07-16T06:59:51;98772.94;;;22.68;58.72
70952;BME280;69214;55.880;37.542;2023-07-16T07:02:17;98774.41;;;22.48;59.46
70952;BME280;69214;55.880;37.542;2023-07-16T07:04:43;98772.56;;;22.09;60.26
70952;BME280;69214;55.880;37.542;2023-07-16T07:07:09;98784.91;;;21.86;60.51
70952;BME280;69214;55.880;37.542;2023-07-16T07:09:35;98783.03;;;21.64;60.95
70952;BME280;69214;55.880;37.542;2023-07-16T07:12:01;98781.47;;;21.41;61.55
70952;BME280;69214;55.880;37.542;2023-07-16T07:14:28;98778.56;;;21.46;61.87
70952;BME280;69214;55.880;37.542;2023-07-16T07:16:53;98783.09;;;21.81;61.02
70952;BME280;69214;55.880;37.542;2023-07-16T07:19:19;98776.03;;;22.32;59.79
70952;BME280;69214;55.880;37.542;2023-07-16T07:21:45;98776.69;;;22.89;58.51
70952;BME280;69214;55.880;37.542;2023-07-16T07:24:12;98763.91;;;23.52;57.49
70952;BME280;69214;55.880;37.542;2023-07-16T07:26:38;98766.78;;;24.53;54.73
70952;BME280;69214;55.880;37.542;2023-07-16T07:29:04;98779.28;;;25.67;51.99
70952;BME280;69214;55.880;37.542;2023-07-16T07:31:30;98766.50;;;26.42;50.51
70952;BME280;69214;55.880;37.542;2023-07-16T07:33:56;98778.72;;;27.34;48.33
70952;BME280;69214;55.880;37.542;2023-07-16T07:36:23;98765.81;;;27.92;47.21
70952;BME280;69214;55.880;37.542;2023-07-16T07:38:49;98775.56;;;28.14;46.01
70952;BME280;69214;55.880;37.542;2023-07-16T07:41:15;98773.09;;;28.63;45.83
70952;BME280;69214;55.880;37.542;2023-07-16T07:43:41;98755.31;;;30.62;42.78
70952;BME280;69214;55.880;37.542;2023-07-16T07:46:06;98772.41;;;32.45;39.38
70952;BME280;69214;55.880;37.542;2023-07-16T07:48:32;98763.56;;;33.55;37.27
70952;BME280;69214;55.880;37.542;2023-07-16T07:50:58;98746.81;;;32.93;36.46
70952;BME280;69214;55.880;37.542;2023-07-16T07:53:24;98764.72;;;31.47;39.18
70952;BME280;69214;55.880;37.542;2023-07-16T07:55:51;98768.84;;;30.00;40.51
70952;BME280;69214;55.880;37.542;2023-07-16T07:58:17;98768.41;;;28.32;43.90
70952;BME280;69214;55.880;37.542;2023-07-16T08:00:43;98770.38;;;27.06;46.84
70952;BME280;69214;55.880;37.542;2023-07-16T08:03:09;98751.06;;;25.96;48.93
70952;BME280;69214;55.880;37.542;2023-07-16T08:05:35;98775.31;;;25.23;50.90
70952;BME280;69214;55.880;37.542;2023-07-16T08:08:01;98781.19;;;24.55;52.19
70952;BME280;69214;55.880;37.542;2023-07-16T08:10:26;98763.19;;;24.02;53.83
70952;BME280;69214;55.880;37.542;2023-07-16T08:12:52;98778.38;;;23.84;54.32
70952;BME280;69214;55.880;37.542;2023-07-16T08:15:18;98777.00;;;23.61;54.63
70952;BME280;69214;55.880;37.542;2023-07-16T08:17:45;98776.44;;;23.29;55.42
70952;BME280;69214;55.880;37.542;2023-07-16T08:20:11;98765.56;;;22.72;57.04
70952;BME280;69214;55.880;37.542;2023-07-16T08:22:38;98766.22;;;22.17;58.41
70952;BME280;69214;55.880;37.542;2023-07-16T08:25:05;98781.81;;;21.87;59.28
70952;BME280;69214;55.880;37.542;2023-07-16T08:27:31;98781.75;;;21.70;59.96
70952;BME280;69214;55.880;37.542;2023-07-16T08:29:57;98775.72;;;21.77;59.75
70952;BME280;69214;55.880;37.542;2023-07-16T08:32:23;98781.63;;;21.75;59.41
70952;BME280;69214;55.880;37.542;2023-07-16T08:34:49;98777.72;;;21.85;58.43
70952;BME280;69214;55.880;37.542;2023-07-16T08:37:15;98778.94;;;22.10;58.22
70952;BME280;69214;55.880;37.542;2023-07-16T08:39:41;98767.38;;;22.34;57.09
70952;BME280;69214;55.880;37.542;2023-07-16T08:42:09;98767.69;;;22.75;56.79
70952;BME280;69214;55.880;37.542;2023-07-16T08:44:37;98767.16;;;23.16;56.00
70952;BME280;69214;55.880;37.542;2023-07-16T08:47:05;98754.41;;;23.62;55.41
70952;BME280;69214;55.880;37.542;2023-07-16T08:49:33;98751.19;;;24.31;54.71
70952;BME280;69214;55.880;37.542;2023-07-16T08:52:01;98767.16;;;25.17;52.69
70952;BME280;69214;55.880;37.542;2023-07-16T08:54:28;98759.09;;;25.61;50.52
70952;BME280;69214;55.880;37.542;2023-07-16T08:56:57;98751.78;;;25.69;52.01
70952;BME280;69214;55.880;37.542;2023-07-16T08:59:23;98761.28;;;25.56;50.27
70952;BME280;69214;55.880;37.542;2023-07-16T09:01:50;98770.59;;;25.35;50.77
70952;BME280;69214;55.880;37.542;2023-07-16T09:04:16;98767.13;;;25.05;50.27
70952;BME280;69214;55.880;37.542;2023-07-16T09:06:42;98767.88;;;24.40;51.99
70952;BME280;69214;55.880;37.542;2023-07-16T09:09:08;98763.84;;;23.70;52.95
70952;BME280;69214;55.880;37.542;2023-07-16T09:11:34;98766.69;;;22.97;54.20
70952;BME280;69214;55.880;37.542;2023-07-16T09:14:03;98750.19;;;22.49;56.97
70952;BME280;69214;55.880;37.542;2023-07-16T09:16:34;98728.13;;;22.26;56.85
70952;BME280;69214;55.880;37.542;2023-07-16T09:19:09;98706.22;;;22.08;57.88
70952;BME280;69214;55.880;37.542;2023-07-16T09:21:41;98759.34;;;22.58;55.79
70952;BME280;69214;55.880;37.542;2023-07-16T09:24:09;98760.16;;;22.76;56.24
70952;BME280;69214;55.880;37.542;2023-07-16T09:26:38;98766.69;;;22.97;56.41
70952;BME280;69214;55.880;37.542;2023-07-16T09:29:07;98758.63;;;23.21;55.42
70952;BME280;69214;55.880;37.542;2023-07-16T09:31:33;98755.81;;;23.30;54.23
70952;BME280;69214;55.880;37.542;2023-07-16T09:33:59;98756.88;;;23.46;54.22
70952;BME280;69214;55.880;37.542;2023-07-16T09:36:26;98768.13;;;23.67;53.82
70952;BME280;69214;55.880;37.542;2023-07-16T09:38:56;98760.09;;;23.66;54.79
70952;BME280;69214;55.880;37.542;2023-07-16T09:41:23;98757.03;;;23.50;53.55
70952;BME280;69214;55.880;37.542;2023-07-16T09:43:49;98767.84;;;23.60;53.46
70952;BME280;69214;55.880;37.542;2023-07-16T09:46:15;98773.59;;;23.55;52.06
70952;BME280;69214;55.880;37.542;2023-07-16T09:48:40;98769.91;;;23.25;53.19
70952;BME280;69214;55.880;37.542;2023-07-16T09:51:07;98771.78;;;22.95;54.55
70952;BME280;69214;55.880;37.542;2023-07-16T09:53:36;98769.16;;;22.99;54.76
70952;BME280;69214;55.880;37.542;2023-07-16T09:56:03;98763.63;;;23.37;54.10
70952;BME280;69214;55.880;37.542;2023-07-16T09:58:30;98760.41;;;23.73;51.84
70952;BME280;69214;55.880;37.542;2023-07-16T10:00:57;98771.16;;;23.83;51.79
70952;BME280;69214;55.880;37.542;2023-07-16T10:03:24;98762.56;;;23.67;50.15
70952;BME280;69214;55.880;37.542;2023-07-16T10:05:49;98761.00;;;23.40;51.21
70952;BME280;69214;55.880;37.542;2023-07-16T10:08:18;98764.50;;;23.20;52.53
70952;BME280;69214;55.880;37.542;2023-07-16T10:10:47;98759.25;;;23.27;53.04
70952;BME280;69214;55.880;37.542;2023-07-16T10:13:17;98758.72;;;23.42;51.11
70952;BME280;69214;55.880;37.542;2023-07-16T10:15:56;98758.81;;;23.63;53.21
70952;BME280;69214;55.880;37.542;2023-07-16T10:18:31;98751.41;;;23.97;51.46
70952;BME280;69214;55.880;37.542;2023-07-16T10:21:09;98751.59;;;24.42;52.41
70952;BME280;69214;55.880;37.542;2023-07-16T10:23:39;98753.28;;;24.76;49.29
70952;BME280;69214;55.880;37.542;2023-07-16T10:26:07;98756.94;;;24.89;49.09
70952;BME280;69214;55.880;37.542;2023-07-16T10:28:36;98761.13;;;24.95;48.64
70952;BME280;69214;55.880;37.542;2023-07-16T10:31:02;98749.19;;;24.73;48.87
70952;BME280;69214;55.880;37.542;2023-07-16T10:33:31;98735.47;;;24.47;49.14
70952;BME280;69214;55.880;37.542;2023-07-16T10:35:57;98770.22;;;24.71;49.29
70952;BME280;69214;55.880;37.542;2023-07-16T10:38:26;98763.91;;;24.62;48.46
70952;BME280;69214;55.880;37.542;2023-07-16T10:40:53;98763.78;;;24.58;48.93
70952;BME280;69214;55.880;37.542;2023-07-16T10:43:19;98751.53;;;24.50;49.08
70952;BME280;69214;55.880;37.542;2023-07-16T10:45:46;98757.50;;;24.61;49.02
70952;BME280;69214;55.880;37.542;2023-07-16T10:48:13;98769.59;;;24.86;48.28
70952;BME280;69214;55.880;37.542;2023-07-16T10:50:39;98745.91;;;24.92;47.61
70952;BME280;69214;55.880;37.542;2023-07-16T10:53:04;98756.72;;;24.94;47.52
70952;BME280;69214;55.880;37.542;2023-07-16T10:55:31;98752.25;;;24.80;46.98
70952;BME280;69214;55.880;37.542;2023-07-16T10:58:04;98757.13;;;24.50;48.00
70952;BME280;69214;55.880;37.542;2023-07-16T11:00:38;98757.59;;;24.52;50.55
70952;BME280;69214;55.880;37.542;2023-07-16T11:03:04;98755.59;;;24.74;47.80
70952;BME280;69214;55.880;37.542;2023-07-16T11:05:30;98762.13;;;24.78;47.33
70952;BME280;69214;55.880;37.542;2023-07-16T11:07:56;98765.34;;;24.68;47.06
70952;BME280;69214;55.880;37.542;2023-07-16T11:10:23;98767.13;;;24.51;48.58
70952;BME280;69214;55.880;37.542;2023-07-16T11:12:53;98756.44;;;24.53;49.32
70952;BME280;69214;55.880;37.542;2023-07-16T11:15:30;98755.94;;;24.72;50.34
70952;BME280;69214;55.880;37.542;2023-07-16T11:17:56;98757.00;;;24.80;47.42
70952;BME280;69214;55.880;37.542;2023-07-16T11:20:22;98748.09;;;24.86;47.40
70952;BME280;69214;55.880;37.542;2023-07-16T11:22:48;98753.28;;;24.97;46.03
70952;BME280;69214;55.880;37.542;2023-07-16T11:25:14;98743.38;;;24.99;45.81
70952;BME280;69214;55.880;37.542;2023-07-16T11:27:41;98751.44;;;25.13;47.31
70952;BME280;69214;55.880;37.542;2023-07-16T11:30:08;98750.41;;;25.17;45.83
70952;BME280;69214;55.880;37.542;2023-07-16T11:32:36;98752.72;;;25.15;47.75
70952;BME280;69214;55.880;37.542;2023-07-16T11:35:07;98736.50;;;24.97;47.78
70952;BME280;69214;55.880;37.542;2023-07-16T11:37:35;98753.63;;;24.74;47.35
70952;BME280;69214;55.880;37.542;2023-07-16T11:40:07;98753.91;;;24.40;48.42
70952;BME280;69214;55.880;37.542;2023-07-16T11:42:36;98756.25;;;24.08;48.69
70952;BME280;69214;55.880;37.542;2023-07-16T11:45:03;98753.38;;;23.96;49.05
70952;BME280;69214;55.880;37.542;2023-07-16T11:47:34;98752.09;;;23.94;48.94
70952;BME280;69214;55.880;37.542;2023-07-16T11:50:00;98741.53;;;23.78;49.03
70952;BME280;69214;55.880;37.542;2023-07-16T11:52:27;98717.88;;;23.55;49.28
70952;BME280;69214;55.880;37.542;2023-07-16T11:54:57;98751.50;;;23.79;49.92
70952;BME280;69214;55.880;37.542;2023-07-16T11:57:26;98755.84;;;23.98;48.23
70952;BME280;69214;55.880;37.542;2023-07-16T11:59:52;98766.38;;;24.13;47.85
70952;BME280;69214;55.880;37.542;2023-07-16T12:02:19;98761.09;;;24.20;47.61
70952;BME280;69214;55.880;37.542;2023-07-16T12:04:45;98752.88;;;24.23;47.46
70952;BME280;69214;55.880;37.542;2023-07-16T12:07:10;98762.34;;;24.31;47.64
70952;BME280;69214;55.880;37.542;2023-07-16T12:09:36;98763.50;;;24.51;46.87
70952;BME280;69214;55.880;37.542;2023-07-16T12:12:06;98760.31;;;24.61;46.08
70952;BME280;69214;55.880;37.542;2023-07-16T12:14:32;98750.78;;;24.62;46.03
70952;BME280;69214;55.880;37.542;2023-07-16T12:16:58;98751.66;;;24.54;47.22
70952;BME280;69214;55.880;37.542;2023-07-16T12:19:24;98733.41;;;24.15;47.48
70952;BME280;69214;55.880;37.542;2023-07-16T12:21:50;98742.34;;;23.79;48.20
70952;BME280;69214;55.880;37.542;2023-07-16T12:24:16;98746.72;;;23.50;48.68
70952;BME280;69214;55.880;37.542;2023-07-16T12:26:43;98744.25;;;23.11;49.34
70952;BME280;69214;55.880;37.542;2023-07-16T12:29:09;98748.72;;;22.86;50.44
70952;BME280;69214;55.880;37.542;2023-07-16T12:31:35;98739.88;;;22.67;51.42
70952;BME280;69214;55.880;37.542;2023-07-16T12:34:01;98741.38;;;22.55;51.38
70952;BME280;69214;55.880;37.542;2023-07-16T12:36:30;98760.00;;;22.55;51.49
70952;BME280;69214;55.880;37.542;2023-07-16T12:38:56;98754.44;;;22.46;51.61
70952;BME280;69214;55.880;37.542;2023-07-16T12:41:23;98750.84;;;22.46;51.07
70952;BME280;69214;55.880;37.542;2023-07-16T12:43:49;98747.75;;;22.47;49.96
70952;BME280;69214;55.880;37.542;2023-07-16T12:46:14;98749.53;;;22.52;50.72
70952;BME280;69214;55.880;37.542;2023-07-16T12:48:40;98742.34;;;22.59;50.57
70952;BME280;69214;55.880;37.542;2023-07-16T12:51:06;98742.97;;;22.74;50.58